sensor_id;sensor_type;location;lat;lon;timestamp;P1;durP1;ratioP1;P2;durP2;ratioP2
26335;SDS011;14047;50.936;4.654;2022-09-09T00:04:05;4.35;;;1.45;;
26335;SDS011;14047;50.936;4.654;2022-09-09T00:06:45;3.72;;;1.10;;
26335;SDS011;14047;50.936;4.654;2022-09-09T00:09:21;4.95;;;1.73;;
26335;SDS011;14047;50.936;4.654;2022-09-09T00:14:40;9.73;;;1.70;;
26335;SDS011;14047;50.936;4.654;2022-09-09T00:20:14;4.78;;;2.00;;
26335;SDS011;14047;50.936;4.654;2022-09-09T00:22:47;6.82;;;2.08;;
26335;SDS011;14047;50.936;4.654;2022-09-09T00:25:23;6.82;;;1.55;;
26335;SDS011;14047;50.936;4.654;2022-09-09T00:28:20;5.40;;;1.60;;
26335;SDS011;14047;50.936;4.654;2022-09-09T00:30:49;6.15;;;1.42;;
26335;SDS011;14047;50.936;4.654;2022-09-09T00:33:16;6.88;;;1.60;;
26335;SDS011;14047;50.936;4.654;2022-09-09T00:35:48;6.00;;;1.25;;
26335;SDS011;14047;50.936;4.654;2022-09-09T00:38:29;4.78;;;1.42;;
26335;SDS011;14047;50.936;4.654;2022-09-09T00:43:42;3.83;;;1.52;;
26335;SDS011;14047;50.936;4.654;2022-09-09T00:46:48;5.00;;;1.60;;
26335;SDS011;14047;50.936;4.654;2022-09-09T00:50:00;7.40;;;1.60;;
26335;SDS011;14047;50.936;4.654;2022-09-09T00:55:28;6.50;;;1.70;;
26335;SDS011;14047;50.936;4.654;2022-09-09T00:57:57;8.98;;;1.67;;
26335;SDS011;14047;50.936;4.654;2022-09-09T01:00:27;7.85;;;1.73;;
26335;SDS011;14047;50.936;4.654;2022-09-09T01:08:48;9.40;;;2.15;;
26335;SDS011;14047;50.936;4.654;2022-09-09T01:17:00;9.25;;;1.70;;
26335;SDS011;14047;50.936;4.654;2022-09-09T01:27:37;11.32;;;2.63;;
26335;SDS011;14047;50.936;4.654;2022-09-09T01:30:08;5.85;;;2.03;;
26335;SDS011;14047;50.936;4.654;2022-09-09T01:32:43;11.25;;;1.65;;
26335;SDS011;14047;50.936;4.654;2022-09-09T01:35:13;11.20;;;2.05;;
26335;SDS011;14047;50.936;4.654;2022-09-09T01:37:52;11.48;;;2.65;;
26335;SDS011;14047;50.936;4.654;2022-09-09T01:40:18;13.90;;;2.20;;
26335;SDS011;14047;50.936;4.654;2022-09-09T01:42:43;9.65;;;2.63;;
26335;SDS011;14047;50.936;4.654;2022-09-09T01:45:09;7.78;;;2.22;;
26335;SDS011;14047;50.936;4.654;2022-09-09T01:47:35;8.50;;;2.30;;
26335;SDS011;14047;50.936;4.654;2022-09-09T01:50:01;9.50;;;2.28;;
26335;SDS011;14047;50.936;4.654;2022-09-09T01:52:28;9.60;;;2.10;;
26335;SDS011;14047;50.936;4.654;2022-09-09T01:54:54;9.57;;;2.22;;
26335;SDS011;14047;50.936;4.654;2022-09-09T02:00:12;7.43;;;2.38;;
26335;SDS011;14047;50.936;4.654;2022-09-09T02:08:13;12.18;;;2.60;;
26335;SDS011;14047;50.936;4.654;2022-09-09T02:10:50;13.55;;;2.60;;
26335;SDS011;14047;50.936;4.654;2022-09-09T02:13:26;16.05;;;2.42;;
26335;SDS011;14047;50.936;4.654;2022-09-09T02:16:01;8.73;;;2.35;;
26335;SDS011;14047;50.936;4.654;2022-09-09T02:21:28;9.20;;;2.00;;
26335;SDS011;14047;50.936;4.654;2022-09-09T02:23:56;7.63;;;1.92;;
26335;SDS011;14047;50.936;4.654;2022-09-09T02:26:25;11.23;;;2.40;;
26335;SDS011;14047;50.936;4.654;2022-09-09T02:28:52;8.63;;;2.30;;
26335;SDS011;14047;50.936;4.654;2022-09-09T02:31:22;11.35;;;2.10;;
26335;SDS011;14047;50.936;4.654;2022-09-09T02:33:56;8.43;;;1.92;;
26335;SDS011;14047;50.936;4.654;2022-09-09T02:36:26;10.82;;;1.95;;
26335;SDS011;14047;50.936;4.654;2022-09-09T02:38:54;11.48;;;2.40;;
26335;SDS011;14047;50.936;4.654;2022-09-09T02:41:23;11.80;;;3.40;;
26335;SDS011;14047;50.936;4.654;2022-09-09T02:43:52;14.65;;;2.60;;
26335;SDS011;14047;50.936;4.654;2022-09-09T02:46:32;13.23;;;2.53;;
26335;SDS011;14047;50.936;4.654;2022-09-09T02:49:09;12.73;;;2.33;;
26335;SDS011;14047;50.936;4.654;2022-09-09T02:54:30;10.45;;;2.15;;
26335;SDS011;14047;50.936;4.654;2022-09-09T02:57:43;12.35;;;2.42;;
26335;SDS011;14047;50.936;4.654;2022-09-09T02:59:48;14.80;;;2.95;;
26335;SDS011;14047;50.936;4.654;2022-09-09T03:02:15;19.77;;;2.75;;
26335;SDS011;14047;50.936;4.654;2022-09-09T03:04:40;9.90;;;2.38;;
26335;SDS011;14047;50.936;4.654;2022-09-09T03:07:09;8.98;;;2.30;;
26335;SDS011;14047;50.936;4.654;2022-09-09T03:09:35;10.77;;;2.75;;
26335;SDS011;14047;50.936;4.654;2022-09-09T03:12:01;21.17;;;3.15;;
26335;SDS011;14047;50.936;4.654;2022-09-09T03:14:29;9.55;;;2.72;;
26335;SDS011;14047;50.936;4.654;2022-09-09T03:16:55;13.65;;;2.20;;
26335;SDS011;14047;50.936;4.654;2022-09-09T03:19:25;16.15;;;2.20;;
26335;SDS011;14047;50.936;4.654;2022-09-09T03:21:51;14.00;;;2.63;;
26335;SDS011;14047;50.936;4.654;2022-09-09T03:24:17;8.05;;;2.33;;
26335;SDS011;14047;50.936;4.654;2022-09-09T03:26:42;13.85;;;2.88;;
26335;SDS011;14047;50.936;4.654;2022-09-09T03:29:10;10.15;;;2.15;;
26335;SDS011;14047;50.936;4.654;2022-09-09T03:31:37;10.80;;;1.85;;
26335;SDS011;14047;50.936;4.654;2022-09-09T03:34:03;12.60;;;2.25;;
26335;SDS011;14047;50.936;4.654;2022-09-09T03:36:29;13.20;;;3.35;;
26335;SDS011;14047;50.936;4.654;2022-09-09T03:38:55;16.30;;;3.92;;
26335;SDS011;14047;50.936;4.654;2022-09-09T03:41:21;16.98;;;3.30;;
26335;SDS011;14047;50.936;4.654;2022-09-09T03:43:49;13.30;;;2.20;;
26335;SDS011;14047;50.936;4.654;2022-09-09T03:46:22;11.52;;;2.30;;
26335;SDS011;14047;50.936;4.654;2022-09-09T03:48:50;14.98;;;2.63;;
26335;SDS011;14047;50.936;4.654;2022-09-09T03:51:17;19.50;;;2.17;;
26335;SDS011;14047;50.936;4.654;2022-09-09T03:53:43;11.48;;;2.03;;
26335;SDS011;14047;50.936;4.654;2022-09-09T03:56:09;13.15;;;2.20;;
26335;SDS011;14047;50.936;4.654;2022-09-09T03:58:35;14.43;;;3.53;;
26335;SDS011;14047;50.936;4.654;2022-09-09T04:01:09;16.00;;;2.70;;
26335;SDS011;14047;50.936;4.654;2022-09-09T04:03:38;21.17;;;3.08;;
26335;SDS011;14047;50.936;4.654;2022-09-09T04:06:04;11.88;;;2.47;;
26335;SDS011;14047;50.936;4.654;2022-09-09T04:08:32;13.82;;;2.42;;
26335;SDS011;14047;50.936;4.654;2022-09-09T04:10:58;15.88;;;2.95;;
26335;SDS011;14047;50.936;4.654;2022-09-09T04:13:27;15.77;;;3.33;;
26335;SDS011;14047;50.936;4.654;2022-09-09T04:15:59;10.35;;;2.22;;
26335;SDS011;14047;50.936;4.654;2022-09-09T04:18:26;15.63;;;2.45;;
26335;SDS011;14047;50.936;4.654;2022-09-09T04:20:55;16.98;;;2.65;;
26335;SDS011;14047;50.936;4.654;2022-09-09T04:23:22;11.70;;;2.83;;
26335;SDS011;14047;50.936;4.654;2022-09-09T04:25:50;13.95;;;2.58;;
26335;SDS011;14047;50.936;4.654;2022-09-09T04:28:17;12.68;;;2.58;;
26335;SDS011;14047;50.936;4.654;2022-09-09T04:30:45;13.60;;;2.30;;
26335;SDS011;14047;50.936;4.654;2022-09-09T04:33:11;18.90;;;2.78;;
26335;SDS011;14047;50.936;4.654;2022-09-09T04:35:38;15.02;;;2.80;;
26335;SDS011;14047;50.936;4.654;2022-09-09T04:38:08;17.70;;;2.55;;
26335;SDS011;14047;50.936;4.654;2022-09-09T04:40:34;10.93;;;2.40;;
26335;SDS011;14047;50.936;4.654;2022-09-09T04:43:00;10.00;;;2.25;;
26335;SDS011;14047;50.936;4.654;2022-09-09T04:45:28;10.68;;;2.42;;
26335;SDS011;14047;50.936;4.654;2022-09-09T04:47:55;11.40;;;2.70;;
26335;SDS011;14047;50.936;4.654;2022-09-09T04:50:20;16.40;;;2.53;;
26335;SDS011;14047;50.936;4.654;2022-09-09T04:52:46;12.27;;;2.53;;
26335;SDS011;14047;50.936;4.654;2022-09-09T04:55:12;14.93;;;2.30;;
26335;SDS011;14047;50.936;4.654;2022-09-09T04:57:38;22.15;;;3.13;;
26335;SDS011;14047;50.936;4.654;2022-09-09T05:00:04;10.15;;;2.50;;
26335;SDS011;14047;50.936;4.654;2022-09-09T05:02:30;12.10;;;2.28;;
26335;SDS011;14047;50.936;4.654;2022-09-09T05:04:57;15.50;;;2.50;;
26335;SDS011;14047;50.936;4.654;2022-09-09T05:07:23;14.13;;;2.40;;
26335;SDS011;14047;50.936;4.654;2022-09-09T05:09:51;17.15;;;3.03;;
26335;SDS011;14047;50.936;4.654;2022-09-09T05:12:17;14.15;;;2.65;;
26335;SDS011;14047;50.936;4.654;2022-09-09T05:14:43;8.90;;;2.50;;
26335;SDS011;14047;50.936;4.654;2022-09-09T05:17:09;16.02;;;3.17;;
26335;SDS011;14047;50.936;4.654;2022-09-09T05:19:35;17.40;;;3.17;;
26335;SDS011;14047;50.936;4.654;2022-09-09T05:22:01;12.85;;;3.25;;
26335;SDS011;14047;50.936;4.654;2022-09-09T05:24:27;20.63;;;3.53;;
26335;SDS011;14047;50.936;4.654;2022-09-09T05:26:53;15.43;;;3.50;;
26335;SDS011;14047;50.936;4.654;2022-09-09T05:29:18;14.05;;;3.00;;
26335;SDS011;14047;50.936;4.654;2022-09-09T05:31:45;23.13;;;3.50;;
26335;SDS011;14047;50.936;4.654;2022-09-09T05:34:12;15.00;;;4.00;;
26335;SDS011;14047;50.936;4.654;2022-09-09T05:36:37;16.77;;;3.03;;
26335;SDS011;14047;50.936;4.654;2022-09-09T05:39:03;16.50;;;3.25;;
26335;SDS011;14047;50.936;4.654;2022-09-09T05:41:29;16.90;;;4.25;;
26335;SDS011;14047;50.936;4.654;2022-09-09T05:43:55;21.08;;;4.85;;
26335;SDS011;14047;50.936;4.654;2022-09-09T05:46:22;14.32;;;2.80;;
26335;SDS011;14047;50.936;4.654;2022-09-09T05:48:49;24.25;;;4.60;;
26335;SDS011;14047;50.936;4.654;2022-09-09T05:51:20;20.77;;;3.00;;
26335;SDS011;14047;50.936;4.654;2022-09-09T05:53:47;16.63;;;2.95;;
26335;SDS011;14047;50.936;4.654;2022-09-09T05:56:15;19.15;;;3.28;;
26335;SDS011;14047;50.936;4.654;2022-09-09T05:58:42;10.68;;;3.40;;
26335;SDS011;14047;50.936;4.654;2022-09-09T06:01:13;17.20;;;2.53;;
26335;SDS011;14047;50.936;4.654;2022-09-09T06:03:41;13.77;;;3.00;;
26335;SDS011;14047;50.936;4.654;2022-09-09T06:06:08;15.57;;;2.63;;
26335;SDS011;14047;50.936;4.654;2022-09-09T06:08:36;12.57;;;2.35;;
26335;SDS011;14047;50.936;4.654;2022-09-09T06:11:05;19.55;;;3.50;;
26335;SDS011;14047;50.936;4.654;2022-09-09T06:13:34;18.75;;;2.65;;
26335;SDS011;14047;50.936;4.654;2022-09-09T06:16:02;10.45;;;1.92;;
26335;SDS011;14047;50.936;4.654;2022-09-09T06:18:29;11.07;;;2.80;;
26335;SDS011;14047;50.936;4.654;2022-09-09T06:20:59;15.35;;;2.40;;
26335;SDS011;14047;50.936;4.654;2022-09-09T06:23:26;11.43;;;2.15;;
26335;SDS011;14047;50.936;4.654;2022-09-09T06:28:44;13.13;;;1.98;;
26335;SDS011;14047;50.936;4.654;2022-09-09T06:31:13;11.63;;;2.22;;
26335;SDS011;14047;50.936;4.654;2022-09-09T06:33:41;11.05;;;2.17;;
26335;SDS011;14047;50.936;4.654;2022-09-09T06:36:11;8.90;;;2.28;;
26335;SDS011;14047;50.936;4.654;2022-09-09T06:38:39;13.13;;;2.10;;
26335;SDS011;14047;50.936;4.654;2022-09-09T06:41:07;5.95;;;1.70;;
26335;SDS011;14047;50.936;4.654;2022-09-09T06:43:34;15.23;;;2.67;;
26335;SDS011;14047;50.936;4.654;2022-09-09T06:48:26;7.53;;;1.85;;
26335;SDS011;14047;50.936;4.654;2022-09-09T06:51:06;8.40;;;2.00;;
26335;SDS011;14047;50.936;4.654;2022-09-09T06:53:34;12.75;;;2.30;;
26335;SDS011;14047;50.936;4.654;2022-09-09T06:56:01;14.75;;;3.38;;
26335;SDS011;14047;50.936;4.654;2022-09-09T06:58:41;10.32;;;1.70;;
26335;SDS011;14047;50.936;4.654;2022-09-09T07:01:09;13.80;;;1.83;;
26335;SDS011;14047;50.936;4.654;2022-09-09T07:03:37;14.80;;;2.33;;
26335;SDS011;14047;50.936;4.654;2022-09-09T07:06:04;9.23;;;2.13;;
26335;SDS011;14047;50.936;4.654;2022-09-09T07:08:31;13.00;;;2.20;;
26335;SDS011;14047;50.936;4.654;2022-09-09T07:11:03;17.63;;;2.38;;
26335;SDS011;14047;50.936;4.654;2022-09-09T07:13:30;12.85;;;1.90;;
26335;SDS011;14047;50.936;4.654;2022-09-09T07:16:03;11.55;;;1.85;;
26335;SDS011;14047;50.936;4.654;2022-09-09T07:18:33;8.52;;;1.75;;
26335;SDS011;14047;50.936;4.654;2022-09-09T07:20:59;10.82;;;1.77;;
26335;SDS011;14047;50.936;4.654;2022-09-09T07:23:26;8.23;;;2.60;;
26335;SDS011;14047;50.936;4.654;2022-09-09T07:25:51;14.63;;;1.70;;
26335;SDS011;14047;50.936;4.654;2022-09-09T07:28:18;9.63;;;3.15;;
26335;SDS011;14047;50.936;4.654;2022-09-09T07:30:57;10.52;;;2.22;;
26335;SDS011;14047;50.936;4.654;2022-09-09T07:33:25;13.48;;;2.30;;
26335;SDS011;14047;50.936;4.654;2022-09-09T07:35:51;10.45;;;1.75;;
26335;SDS011;14047;50.936;4.654;2022-09-09T07:38:18;12.32;;;1.70;;
26335;SDS011;14047;50.936;4.654;2022-09-09T07:40:44;7.85;;;1.70;;
26335;SDS011;14047;50.936;4.654;2022-09-09T07:43:10;15.70;;;2.03;;
26335;SDS011;14047;50.936;4.654;2022-09-09T07:45:36;7.32;;;1.55;;
26335;SDS011;14047;50.936;4.654;2022-09-09T07:48:02;16.27;;;1.90;;
26335;SDS011;14047;50.936;4.654;2022-09-09T07:50:28;12.80;;;1.85;;
26335;SDS011;14047;50.936;4.654;2022-09-09T07:52:54;9.68;;;1.38;;
26335;SDS011;14047;50.936;4.654;2022-09-09T07:55:20;7.43;;;1.67;;
26335;SDS011;14047;50.936;4.654;2022-09-09T07:57:50;7.57;;;1.38;;
26335;SDS011;14047;50.936;4.654;2022-09-09T08:00:16;15.95;;;2.10;;
26335;SDS011;14047;50.936;4.654;2022-09-09T08:02:43;11.00;;;1.80;;
26335;SDS011;14047;50.936;4.654;2022-09-09T08:05:09;12.25;;;1.98;;
26335;SDS011;14047;50.936;4.654;2022-09-09T08:07:35;10.07;;;1.73;;
26335;SDS011;14047;50.936;4.654;2022-09-09T08:10:01;9.95;;;1.65;;
26335;SDS011;14047;50.936;4.654;2022-09-09T08:12:27;10.40;;;2.00;;
26335;SDS011;14047;50.936;4.654;2022-09-09T08:14:53;13.60;;;2.13;;
26335;SDS011;14047;50.936;4.654;2022-09-09T08:17:19;12.10;;;1.67;;
26335;SDS011;14047;50.936;4.654;2022-09-09T08:19:45;9.98;;;1.95;;
26335;SDS011;14047;50.936;4.654;2022-09-09T08:22:10;7.97;;;1.65;;
26335;SDS011;14047;50.936;4.654;2022-09-09T08:24:36;8.13;;;1.92;;
26335;SDS011;14047;50.936;4.654;2022-09-09T08:27:02;10.88;;;1.88;;
26335;SDS011;14047;50.936;4.654;2022-09-09T08:29:27;8.07;;;1.52;;
26335;SDS011;14047;50.936;4.654;2022-09-09T08:31:57;11.88;;;1.80;;
26335;SDS011;14047;50.936;4.654;2022-09-09T08:34:23;14.50;;;2.13;;
26335;SDS011;14047;50.936;4.654;2022-09-09T08:36:52;7.95;;;1.90;;
26335;SDS011;14047;50.936;4.654;2022-09-09T08:39:19;6.78;;;1.70;;
26335;SDS011;14047;50.936;4.654;2022-09-09T08:57:56;9.80;;;1.70;;
26335;SDS011;14047;50.936;4.654;2022-09-09T09:00:28;11.35;;;1.73;;
26335;SDS011;14047;50.936;4.654;2022-09-09T09:11:49;9.13;;;1.67;;
26335;SDS011;14047;50.936;4.654;2022-09-09T09:14:21;10.45;;;2.30;;
26335;SDS011;14047;50.936;4.654;2022-09-09T09:16:51;5.43;;;1.45;;
26335;SDS011;14047;50.936;4.654;2022-09-09T09:19:28;8.63;;;1.45;;
26335;SDS011;14047;50.936;4.654;2022-09-09T09:24:34;10.93;;;1.50;;
26335;SDS011;14047;50.936;4.654;2022-09-09T09:27:35;8.77;;;1.48;;
26335;SDS011;14047;50.936;4.654;2022-09-09T09:30:20;6.97;;;1.40;;
26335;SDS011;14047;50.936;4.654;2022-09-09T09:33:11;8.77;;;1.40;;
26335;SDS011;14047;50.936;4.654;2022-09-09T09:35:40;9.82;;;1.52;;
26335;SDS011;14047;50.936;4.654;2022-09-09T09:38:22;8.77;;;1.85;;
26335;SDS011;14047;50.936;4.654;2022-09-09T09:40:53;10.77;;;1.77;;
26335;SDS011;14047;50.936;4.654;2022-09-09T09:43:36;6.07;;;1.33;;
26335;SDS011;14047;50.936;4.654;2022-09-09T09:46:05;7.50;;;1.38;;
26335;SDS011;14047;50.936;4.654;2022-09-09T09:48:43;6.88;;;1.73;;
26335;SDS011;14047;50.936;4.654;2022-09-09T09:51:12;11.43;;;1.67;;
26335;SDS011;14047;50.936;4.654;2022-09-09T09:53:41;10.38;;;1.73;;
26335;SDS011;14047;50.936;4.654;2022-09-09T09:56:13;10.13;;;1.77;;
26335;SDS011;14047;50.936;4.654;2022-09-09T10:01:22;8.30;;;1.45;;
26335;SDS011;14047;50.936;4.654;2022-09-09T10:04:00;7.93;;;1.85;;
26335;SDS011;14047;50.936;4.654;2022-09-09T10:06:48;6.28;;;1.77;;
26335;SDS011;14047;50.936;4.654;2022-09-09T10:09:27;7.07;;;1.60;;
26335;SDS011;14047;50.936;4.654;2022-09-09T10:12:11;5.10;;;1.33;;
26335;SDS011;14047;50.936;4.654;2022-09-09T10:20:31;7.30;;;1.48;;
26335;SDS011;14047;50.936;4.654;2022-09-09T10:26:10;6.03;;;1.30;;
26335;SDS011;14047;50.936;4.654;2022-09-09T10:32:02;9.70;;;1.48;;
26335;SDS011;14047;50.936;4.654;2022-09-09T10:37:46;6.20;;;1.40;;
26335;SDS011;14047;50.936;4.654;2022-09-09T10:40:43;5.75;;;1.48;;
26335;SDS011;14047;50.936;4.654;2022-09-09T10:57:04;5.72;;;1.33;;
26335;SDS011;14047;50.936;4.654;2022-09-09T10:59:47;7.22;;;1.30;;
26335;SDS011;14047;50.936;4.654;2022-09-09T11:02:25;4.93;;;1.38;;
26335;SDS011;14047;50.936;4.654;2022-09-09T11:04:54;4.97;;;1.15;;
26335;SDS011;14047;50.936;4.654;2022-09-09T11:07:40;8.00;;;1.58;;
26335;SDS011;14047;50.936;4.654;2022-09-09T11:12:57;5.95;;;1.25;;
26335;SDS011;14047;50.936;4.654;2022-09-09T11:15:31;7.03;;;1.40;;
26335;SDS011;14047;50.936;4.654;2022-09-09T11:18:05;13.05;;;1.55;;
26335;SDS011;14047;50.936;4.654;2022-09-09T11:20:39;9.43;;;1.50;;
26335;SDS011;14047;50.936;4.654;2022-09-09T11:23:13;8.85;;;2.45;;
26335;SDS011;14047;50.936;4.654;2022-09-09T11:25:48;10.05;;;1.40;;
26335;SDS011;14047;50.936;4.654;2022-09-09T11:30:55;3.97;;;1.25;;
26335;SDS011;14047;50.936;4.654;2022-09-09T11:33:30;7.45;;;1.40;;
26335;SDS011;14047;50.936;4.654;2022-09-09T11:38:59;5.47;;;1.10;;
26335;SDS011;14047;50.936;4.654;2022-09-09T11:41:42;6.72;;;1.60;;
26335;SDS011;14047;50.936;4.654;2022-09-09T11:44:12;5.88;;;0.98;;
26335;SDS011;14047;50.936;4.654;2022-09-09T11:46:45;6.63;;;1.65;;
26335;SDS011;14047;50.936;4.654;2022-09-09T11:49:28;3.10;;;0.95;;
26335;SDS011;14047;50.936;4.654;2022-09-09T11:52:24;7.97;;;1.55;;
26335;SDS011;14047;50.936;4.654;2022-09-09T11:55:08;4.80;;;1.15;;
26335;SDS011;14047;50.936;4.654;2022-09-09T11:57:36;6.53;;;1.25;;
26335;SDS011;14047;50.936;4.654;2022-09-09T12:00:04;7.32;;;1.25;;
26335;SDS011;14047;50.936;4.654;2022-09-09T12:02:31;4.15;;;1.50;;
26335;SDS011;14047;50.936;4.654;2022-09-09T12:05:12;6.10;;;1.17;;
26335;SDS011;14047;50.936;4.654;2022-09-09T12:12:47;6.32;;;1.40;;
26335;SDS011;14047;50.936;4.654;2022-09-09T12:23:04;6.45;;;1.33;;
26335;SDS011;14047;50.936;4.654;2022-09-09T12:34:20;5.10;;;1.30;;
26335;SDS011;14047;50.936;4.654;2022-09-09T12:37:06;5.00;;;1.48;;
26335;SDS011;14047;50.936;4.654;2022-09-09T12:39:58;9.25;;;1.38;;
26335;SDS011;14047;50.936;4.654;2022-09-09T12:42:27;6.63;;;1.27;;
26335;SDS011;14047;50.936;4.654;2022-09-09T12:44:57;4.13;;;1.17;;
26335;SDS011;14047;50.936;4.654;2022-09-09T12:50:14;4.97;;;1.17;;
26335;SDS011;14047;50.936;4.654;2022-09-09T12:52:54;3.88;;;1.20;;
26335;SDS011;14047;50.936;4.654;2022-09-09T12:55:30;5.63;;;1.00;;
26335;SDS011;14047;50.936;4.654;2022-09-09T12:57:58;6.43;;;1.27;;
26335;SDS011;14047;50.936;4.654;2022-09-09T13:00:26;9.30;;;1.60;;
26335;SDS011;14047;50.936;4.654;2022-09-09T13:02:56;5.88;;;1.13;;
26335;SDS011;14047;50.936;4.654;2022-09-09T13:07:51;5.45;;;0.98;;
26335;SDS011;14047;50.936;4.654;2022-09-09T13:10:27;3.38;;;0.90;;
26335;SDS011;14047;50.936;4.654;2022-09-09T13:12:56;10.02;;;1.92;;
26335;SDS011;14047;50.936;4.654;2022-09-09T13:15:24;2.00;;;0.65;;
26335;SDS011;14047;50.936;4.654;2022-09-09T13:18:02;5.57;;;1.23;;
26335;SDS011;14047;50.936;4.654;2022-09-09T13:20:36;6.07;;;1.00;;
26335;SDS011;14047;50.936;4.654;2022-09-09T13:23:02;9.63;;;1.00;;
26335;SDS011;14047;50.936;4.654;2022-09-09T13:25:28;3.65;;;0.68;;
26335;SDS011;14047;50.936;4.654;2022-09-09T13:28:01;7.18;;;1.00;;
26335;SDS011;14047;50.936;4.654;2022-09-09T13:35:31;4.95;;;0.88;;
26335;SDS011;14047;50.936;4.654;2022-09-09T13:37:58;3.05;;;0.80;;
26335;SDS011;14047;50.936;4.654;2022-09-09T13:40:31;6.28;;;0.90;;
26335;SDS011;14047;50.936;4.654;2022-09-09T13:42:57;3.72;;;0.70;;
26335;SDS011;14047;50.936;4.654;2022-09-09T13:45:24;11.40;;;1.23;;
26335;SDS011;14047;50.936;4.654;2022-09-09T13:47:52;3.25;;;0.90;;
26335;SDS011;14047;50.936;4.654;2022-09-09T13:50:29;3.00;;;0.60;;
26335;SDS011;14047;50.936;4.654;2022-09-09T13:52:56;4.53;;;0.88;;
26335;SDS011;14047;50.936;4.654;2022-09-09T13:55:23;6.47;;;1.17;;
26335;SDS011;14047;50.936;4.654;2022-09-09T14:00:22;6.90;;;1.30;;
26335;SDS011;14047;50.936;4.654;2022-09-09T14:02:49;5.30;;;1.42;;
26335;SDS011;14047;50.936;4.654;2022-09-09T14:05:15;3.88;;;0.90;;
26335;SDS011;14047;50.936;4.654;2022-09-09T14:07:42;3.60;;;0.68;;
26335;SDS011;14047;50.936;4.654;2022-09-09T14:10:09;2.38;;;0.70;;
26335;SDS011;14047;50.936;4.654;2022-09-09T14:12:36;4.00;;;0.73;;
26335;SDS011;14047;50.936;4.654;2022-09-09T14:15:02;3.85;;;0.77;;
26335;SDS011;14047;50.936;4.654;2022-09-09T14:17:28;1.77;;;0.60;;
26335;SDS011;14047;50.936;4.654;2022-09-09T14:19:55;4.30;;;0.73;;
26335;SDS011;14047;50.936;4.654;2022-09-09T14:22:21;2.63;;;0.68;;
26335;SDS011;14047;50.936;4.654;2022-09-09T14:24:47;3.58;;;0.85;;
26335;SDS011;14047;50.936;4.654;2022-09-09T14:27:13;3.17;;;0.70;;
26335;SDS011;14047;50.936;4.654;2022-09-09T14:29:39;1.83;;;0.73;;
26335;SDS011;14047;50.936;4.654;2022-09-09T14:32:05;2.72;;;0.80;;
26335;SDS011;14047;50.936;4.654;2022-09-09T14:34:30;3.78;;;0.85;;
26335;SDS011;14047;50.936;4.654;2022-09-09T14:36:57;4.95;;;1.00;;
26335;SDS011;14047;50.936;4.654;2022-09-09T14:39:23;6.78;;;0.85;;
26335;SDS011;14047;50.936;4.654;2022-09-09T14:41:49;2.40;;;0.82;;
26335;SDS011;14047;50.936;4.654;2022-09-09T14:44:14;4.68;;;0.93;;
26335;SDS011;14047;50.936;4.654;2022-09-09T14:46:41;3.25;;;1.10;;
26335;SDS011;14047;50.936;4.654;2022-09-09T14:49:07;4.05;;;1.02;;
26335;SDS011;14047;50.936;4.654;2022-09-09T14:51:35;5.32;;;1.00;;
26335;SDS011;14047;50.936;4.654;2022-09-09T14:54:01;4.75;;;0.82;;
26335;SDS011;14047;50.936;4.654;2022-09-09T14:56:28;9.90;;;1.05;;
26335;SDS011;14047;50.936;4.654;2022-09-09T14:58:57;7.38;;;0.88;;
26335;SDS011;14047;50.936;4.654;2022-09-09T15:01:25;6.03;;;1.40;;
26335;SDS011;14047;50.936;4.654;2022-09-09T15:03:55;4.93;;;0.93;;
26335;SDS011;14047;50.936;4.654;2022-09-09T15:06:23;9.27;;;0.88;;
26335;SDS011;14047;50.936;4.654;2022-09-09T15:08:51;2.72;;;0.98;;
26335;SDS011;14047;50.936;4.654;2022-09-09T15:11:18;2.25;;;0.85;;
26335;SDS011;14047;50.936;4.654;2022-09-09T15:13:45;6.00;;;1.20;;
26335;SDS011;14047;50.936;4.654;2022-09-09T15:16:16;7.18;;;0.95;;
26335;SDS011;14047;50.936;4.654;2022-09-09T15:18:43;4.57;;;1.05;;
26335;SDS011;14047;50.936;4.654;2022-09-09T15:21:13;5.65;;;0.85;;
26335;SDS011;14047;50.936;4.654;2022-09-09T15:23:41;5.93;;;1.20;;
26335;SDS011;14047;50.936;4.654;2022-09-09T15:26:08;4.85;;;0.90;;
26335;SDS011;14047;50.936;4.654;2022-09-09T15:28:34;3.10;;;0.80;;
26335;SDS011;14047;50.936;4.654;2022-09-09T15:31:06;3.65;;;1.00;;
26335;SDS011;14047;50.936;4.654;2022-09-09T15:33:34;4.20;;;0.60;;
26335;SDS011;14047;50.936;4.654;2022-09-09T15:36:12;2.10;;;0.80;;
26335;SDS011;14047;50.936;4.654;2022-09-09T15:38:38;4.43;;;0.82;;
26335;SDS011;14047;50.936;4.654;2022-09-09T15:41:04;3.60;;;0.80;;
26335;SDS011;14047;50.936;4.654;2022-09-09T15:43:29;3.88;;;0.80;;
26335;SDS011;14047;50.936;4.654;2022-09-09T15:45:56;5.40;;;1.33;;
26335;SDS011;14047;50.936;4.654;2022-09-09T15:48:30;3.22;;;0.95;;
26335;SDS011;14047;50.936;4.654;2022-09-09T15:51:01;4.22;;;1.17;;
26335;SDS011;14047;50.936;4.654;2022-09-09T15:53:28;3.00;;;0.77;;
26335;SDS011;14047;50.936;4.654;2022-09-09T15:55:55;6.72;;;0.85;;
26335;SDS011;14047;50.936;4.654;2022-09-09T15:58:20;2.50;;;1.00;;
26335;SDS011;14047;50.936;4.654;2022-09-09T16:00:46;3.80;;;0.95;;
26335;SDS011;14047;50.936;4.654;2022-09-09T16:03:12;2.78;;;0.90;;
26335;SDS011;14047;50.936;4.654;2022-09-09T16:05:38;7.55;;;1.17;;
26335;SDS011;14047;50.936;4.654;2022-09-09T16:08:03;3.63;;;1.17;;
26335;SDS011;14047;50.936;4.654;2022-09-09T16:10:29;5.55;;;1.10;;
26335;SDS011;14047;50.936;4.654;2022-09-09T16:12:55;9.55;;;1.23;;
26335;SDS011;14047;50.936;4.654;2022-09-09T16:15:21;8.05;;;1.10;;
26335;SDS011;14047;50.936;4.654;2022-09-09T16:17:48;3.20;;;0.77;;
26335;SDS011;14047;50.936;4.654;2022-09-09T16:20:14;6.38;;;0.90;;
26335;SDS011;14047;50.936;4.654;2022-09-09T16:22:39;1.63;;;0.90;;
26335;SDS011;14047;50.936;4.654;2022-09-09T16:25:05;6.15;;;1.65;;
26335;SDS011;14047;50.936;4.654;2022-09-09T16:27:31;3.97;;;1.00;;
26335;SDS011;14047;50.936;4.654;2022-09-09T16:29:57;5.20;;;1.25;;
26335;SDS011;14047;50.936;4.654;2022-09-09T16:32:23;1.92;;;1.33;;
26335;SDS011;14047;50.936;4.654;2022-09-09T16:34:50;3.90;;;1.05;;
26335;SDS011;14047;50.936;4.654;2022-09-09T16:37:15;5.15;;;0.90;;
26335;SDS011;14047;50.936;4.654;2022-09-09T16:39:42;5.20;;;1.00;;
26335;SDS011;14047;50.936;4.654;2022-09-09T16:42:08;5.00;;;1.10;;
26335;SDS011;14047;50.936;4.654;2022-09-09T16:44:34;7.15;;;1.00;;
26335;SDS011;14047;50.936;4.654;2022-09-09T16:47:00;5.72;;;1.20;;
26335;SDS011;14047;50.936;4.654;2022-09-09T16:49:26;3.30;;;1.10;;
26335;SDS011;14047;50.936;4.654;2022-09-09T16:51:53;6.60;;;1.52;;
26335;SDS011;14047;50.936;4.654;2022-09-09T16:54:19;3.03;;;1.00;;
26335;SDS011;14047;50.936;4.654;2022-09-09T16:56:45;6.82;;;1.17;;
26335;SDS011;14047;50.936;4.654;2022-09-09T16:59:16;6.05;;;1.33;;
26335;SDS011;14047;50.936;4.654;2022-09-09T17:01:44;4.65;;;1.20;;
26335;SDS011;14047;50.936;4.654;2022-09-09T17:04:12;8.23;;;1.40;;
26335;SDS011;14047;50.936;4.654;2022-09-09T17:06:45;1.67;;;1.20;;
26335;SDS011;14047;50.936;4.654;2022-09-09T17:09:14;5.43;;;1.25;;
26335;SDS011;14047;50.936;4.654;2022-09-09T17:11:40;4.60;;;1.25;;
26335;SDS011;14047;50.936;4.654;2022-09-09T17:14:08;2.33;;;0.90;;
26335;SDS011;14047;50.936;4.654;2022-09-09T17:16:36;4.45;;;0.98;;
26335;SDS011;14047;50.936;4.654;2022-09-09T17:19:04;6.38;;;1.17;;
26335;SDS011;14047;50.936;4.654;2022-09-09T17:21:31;3.85;;;0.95;;
26335;SDS011;14047;50.936;4.654;2022-09-09T17:23:57;2.38;;;1.20;;
26335;SDS011;14047;50.936;4.654;2022-09-09T17:26:25;2.80;;;1.00;;
26335;SDS011;14047;50.936;4.654;2022-09-09T17:28:53;2.88;;;0.90;;
26335;SDS011;14047;50.936;4.654;2022-09-09T17:31:21;2.22;;;1.27;;
26335;SDS011;14047;50.936;4.654;2022-09-09T17:33:48;6.50;;;1.23;;